Time;durP1;ratioP1;P1;durP2;ratioP2;P2;SDS_P1;SDS_P2;PMS_P1;PMS_P2;Temp;Humidity;BMP_temperature;BMP_pressure;BME280_temperature;BME280_humidity;BME280_pressure;Samples;Min_cycle;Max_cycle;Signal;HPM_P1;HPM_P2
2022/06/28 00:01:35;;;;;;;3.03;2.83;;;;;;;16.83;100.00;98637.41;5053756;28;20220;-68
2022/06/28 00:04:02;;;;;;;3.07;2.73;;;;;;;16.84;100.00;98631.13;5054764;28;20732;-69
2022/06/28 00:06:28;;;;;;;3.40;2.60;;;;;;;16.86;100.00;98633.63;5055188;28;20212;-69
2022/06/28 00:08:55;;;;;;;3.07;2.87;;;;;;;16.87;100.00;98638.84;5055127;28;20216;-69
2022/06/28 00:11:21;;;;;;;3.13;2.83;;;;;;;16.90;100.00;98633.25;5054745;28;20228;-70
2022/06/28 00:13:48;;;;;;;3.00;2.80;;;;;;;16.92;100.00;98638.44;5054710;28;20212;-68
2022/06/28 00:16:16;;;;;;;4.20;2.40;;;;;;;16.88;100.00;98639.69;5054984;28;20209;-70
2022/06/28 00:18:43;;;;;;;3.20;2.40;;;;;;;16.88;100.00;98637.84;5054981;28;20220;-69
2022/06/28 00:21:10;;;;;;;2.50;2.00;;;;;;;16.89;100.00;98650.22;5054637;28;20216;-68
2022/06/28 00:23:39;;;;;;;3.00;2.07;;;;;;;16.93;100.00;98654.34;5054427;28;20228;-69
2022/06/28 00:26:07;;;;;;;2.83;2.30;;;;;;;16.97;100.00;98663.78;5052059;28;20211;-69
2022/06/28 00:28:33;;;;;;;2.30;2.10;;;;;;;16.99;100.00;98667.16;5054369;28;20314;-70
2022/06/28 00:31:00;;;;;;;2.20;2.00;;;;;;;17.00;100.00;98668.84;5054445;28;20212;-69
2022/06/28 00:33:28;;;;;;;2.30;2.13;;;;;;;17.00;100.00;98666.16;5054593;28;20565;-70
2022/06/28 00:35:54;;;;;;;4.30;2.30;;;;;;;16.96;100.00;98675.41;5054381;28;20701;-70
2022/06/28 00:38:21;;;;;;;6.27;2.40;;;;;;;16.91;100.00;98669.66;5054213;28;20713;-70
2022/06/28 00:40:50;;;;;;;3.07;2.27;;;;;;;16.82;100.00;98665.09;5054556;28;20238;-70
2022/06/28 00:43:18;;;;;;;2.10;1.90;;;;;;;16.79;100.00;98665.38;5054362;28;20306;-70
2022/06/28 00:45:45;;;;;;;2.40;2.20;;;;;;;16.73;100.00;98657.88;5054055;28;20665;-70
2022/06/28 00:48:13;;;;;;;2.30;2.10;;;;;;;16.69;100.00;98667.13;5054066;28;20218;-70
2022/06/28 00:50:42;;;;;;;3.20;1.80;;;;;;;16.65;100.00;98668.34;5058361;28;20580;-70
2022/06/28 00:53:10;;;;;;;2.00;1.90;;;;;;;16.53;100.00;98650.72;5054363;28;20212;-70
2022/06/28 00:55:38;;;;;;;2.70;2.00;;;;;;;16.44;100.00;98662.16;5053781;28;20220;-70
2022/06/28 00:58:05;;;;;;;2.57;1.93;;;;;;;16.40;100.00;98667.91;5053833;28;20302;-71
2022/06/28 01:00:35;;;;;;;1.97;1.77;;;;;;;16.43;100.00;98668.50;5053736;28;20736;-70
2022/06/28 01:03:02;;;;;;;2.80;1.80;;;;;;;16.40;100.00;98668.72;5053896;28;20208;-71
2022/06/28 01:05:29;;;;;;;2.00;1.70;;;;;;;16.32;100.00;98665.84;5053841;28;20596;-71
2022/06/28 01:07:57;;;;;;;2.20;2.00;;;;;;;16.17;100.00;98669.81;5053576;28;20218;-70
2022/06/28 01:10:26;;;;;;;1.80;1.70;;;;;;;16.08;100.00;98668.84;5053807;28;20577;-71
2022/06/28 01:12:52;;;;;;;2.80;1.90;;;;;;;16.03;100.00;98670.06;5053746;28;20242;-71
2022/06/28 01:15:19;;;;;;;2.00;1.77;;;;;;;15.95;100.00;98677.00;5053703;28;20584;-71
2022/06/28 01:17:46;;;;;;;2.33;2.13;;;;;;;15.94;100.00;98674.50;5051522;28;20204;-71
2022/06/28 01:20:12;;;;;;;2.77;1.97;;;;;;;15.96;100.00;98669.88;5053817;28;20318;-71
2022/06/28 01:22:41;;;;;;;2.50;2.30;;;;;;;15.93;100.00;98662.13;5053657;28;20226;-71
2022/06/28 01:25:09;;;;;;;3.80;2.10;;;;;;;15.95;100.00;98676.19;5053563;28;20234;-71
2022/06/28 01:27:36;;;;;;;2.80;2.00;;;;;;;15.98;100.00;98672.28;5053620;28;20220;-71
2022/06/28 01:30:03;;;;;;;2.70;1.83;;;;;;;15.98;100.00;98670.59;5053195;28;20678;-70
2022/06/28 01:32:30;;;;;;;2.77;2.30;;;;;;;16.03;100.00;98670.06;5053297;28;20217;-70
2022/06/28 01:34:58;;;;;;;2.43;2.00;;;;;;;16.15;100.00;98668.22;5052978;28;20212;-70
2022/06/28 01:37:25;;;;;;;2.20;1.63;;;;;;;16.26;100.00;98676.16;5053106;28;20718;-71
2022/06/28 01:39:53;;;;;;;2.67;1.90;;;;;;;16.38;100.00;98676.03;5053343;28;20220;-71
2022/06/28 01:42:19;;;;;;;3.27;2.30;;;;;;;16.50;100.00;98682.16;5052996;28;20208;-70
2022/06/28 01:44:46;;;;;;;2.00;1.80;;;;;;;16.56;100.00;98674.47;5051372;28;20245;-70
2022/06/28 01:47:14;;;;;;;3.03;2.00;;;;;;;16.62;100.00;98679.28;5053404;28;20230;-70
2022/06/28 01:49:40;;;;;;;3.53;2.40;;;;;;;16.61;100.00;98677.59;5053387;28;20591;-71
2022/06/28 01:52:07;;;;;;;2.53;2.00;;;;;;;16.51;100.00;98681.19;5053117;28;20220;-71
2022/06/28 01:54:34;;;;;;;2.03;1.93;;;;;;;16.43;100.00;98681.81;5053491;28;20220;-71
2022/06/28 01:57:03;;;;;;;3.23;2.13;;;;;;;16.43;100.00;98684.50;5053189;28;20302;-71
2022/06/28 01:59:30;;;;;;;3.63;2.17;;;;;;;16.40;100.00;98684.75;5053223;28;20212;-71
2022/06/28 02:01:56;;;;;;;2.20;2.03;;;;;;;16.43;100.00;98686.31;5053172;28;20219;-70
2022/06/28 02:04:25;;;;;;;2.33;2.10;;;;;;;16.35;100.00;98686.91;5052994;28;20243;-70
2022/06/28 02:06:52;;;;;;;2.23;2.03;;;;;;;16.24;100.00;98678.97;5057680;28;20223;-70
2022/06/28 02:09:18;;;;;;;2.17;2.07;;;;;;;16.15;100.00;98679.72;5052875;28;20599;-70
2022/06/28 02:11:45;;;;;;;2.73;1.90;;;;;;;16.09;100.00;98682.91;5051125;28;20221;-70
2022/06/28 02:14:13;;;;;;;4.23;2.20;;;;;;;16.04;100.00;98689.59;5052772;28;20219;-70
2022/06/28 02:16:40;;;;;;;1.87;1.70;;;;;;;15.95;100.00;98677.00;5042606;28;20230;-70
2022/06/28 02:19:07;;;;;;;2.47;2.07;;;;;;;15.86;100.00;98682.25;5052956;28;20225;-70
2022/06/28 02:21:36;;;;;;;3.40;2.10;;;;;;;15.79;100.00;98692.59;5052903;28;20226;-70
2022/06/28 02:24:03;;;;;;;2.77;2.07;;;;;;;15.70;100.00;98671.16;5052771;28;20302;-70
2022/06/28 02:26:31;;;;;;;2.50;2.30;;;;;;;15.66;100.00;98681.22;5052643;28;20699;-70
2022/06/28 02:28:58;;;;;;;4.70;2.23;;;;;;;15.62;100.00;98678.91;5052943;28;20302;-70
2022/06/28 02:31:26;;;;;;;4.07;2.70;;;;;;;15.55;100.00;98677.72;5052452;28;20246;-70
2022/06/28 02:33:53;;;;;;;2.93;2.63;;;;;;;15.50;100.00;98674.56;5052334;28;20201;-70
2022/06/28 02:41:50;;;;;;;3.70;2.50;;;;;;;15.37;100.00;98689.84;5049177;28;20211;-70
2022/06/28 02:44:17;;;;;;;4.60;2.27;;;;;;;15.35;100.00;98691.78;5052607;28;20232;-70
2022/06/28 02:46:45;;;;;;;3.93;2.60;;;;;;;15.30;100.00;98689.47;5052506;28;20223;-70
2022/06/28 02:49:12;;;;;;;2.60;2.40;;;;;;;15.26;100.00;98689.81;5053191;28;20219;-70
2022/06/28 02:51:39;;;;;;;3.10;2.17;;;;;;;15.21;100.00;98694.69;5056451;28;20218;-73
2022/06/28 02:54:05;;;;;;;2.40;2.20;;;;;;;15.17;100.00;98694.06;5056445;28;20215;-70
2022/06/28 02:56:32;;;;;;;5.03;2.57;;;;;;;15.15;100.00;98696.00;5056347;28;20217;-70
2022/06/28 02:58:59;;;;;;;3.13;2.30;;;;;;;15.10;100.00;98697.34;5056346;28;20215;-70
2022/06/28 03:01:25;;;;;;;3.87;2.00;;;;;;;15.01;100.00;98698.03;5055814;28;20638;-69
2022/06/28 03:03:53;;;;;;;2.60;2.40;;;;;;;14.95;100.00;98699.38;5054848;28;20680;-69
2022/06/28 03:06:20;;;;;;;4.13;2.67;;;;;;;14.96;100.00;98692.25;5056036;28;20334;-69
2022/06/28 03:08:46;;;;;;;4.00;2.73;;;;;;;14.93;100.00;98692.47;5055999;28;20220;-70
2022/06/28 03:11:13;;;;;;;3.00;2.30;;;;;;;14.93;100.00;98696.00;5056115;28;20226;-69
2022/06/28 03:13:39;;;;;;;2.40;2.20;;;;;;;14.94;100.00;98700.34;5055707;28;20219;-69
2022/06/28 03:16:06;;;;;;;2.57;2.37;;;;;;;14.94;100.00;98702.16;5056000;28;20219;-69
2022/06/28 03:18:33;;;;;;;3.53;2.50;;;;;;;14.92;100.00;98699.59;5055970;28;20210;-69
2022/06/28 03:21:00;;;;;;;2.83;2.30;;;;;;;14.93;100.00;98695.13;5058623;28;20225;-69
2022/06/28 03:23:27;;;;;;;2.70;2.50;;;;;;;15.01;100.00;98698.03;5055821;28;20238;-70
2022/06/28 03:25:53;;;;;;;4.73;2.50;;;;;;;15.05;100.00;98699.50;5055682;28;20254;-69
2022/06/28 03:28:20;;;;;;;2.73;2.53;;;;;;;15.08;100.00;98702.78;5053805;28;20226;-70
2022/06/28 03:30:46;;;;;;;3.70;3.00;;;;;;;15.10;100.00;98700.81;5055704;28;20226;-70
2022/06/28 03:33:13;;;;;;;5.00;3.13;;;;;;;15.18;100.00;98694.91;5055563;28;20225;-70
2022/06/28 03:35:39;;;;;;;3.87;3.30;;;;;;;15.26;100.00;98697.81;5055710;28;20574;-70
2022/06/28 03:38:07;;;;;;;4.00;3.00;;;;;;;15.36;100.00;98698.81;5055479;28;20564;-70
2022/06/28 03:40:34;;;;;;;4.73;3.23;;;;;;;15.43;100.00;98694.69;5055266;28;20239;-70
2022/06/28 03:43:00;;;;;;;3.60;3.30;;;;;;;15.46;100.00;98699.78;5055443;28;20222;-70
2022/06/28 03:45:27;;;;;;;4.30;3.10;;;;;;;15.52;100.00;98699.28;5055490;28;20243;-70
2022/06/28 03:47:53;;;;;;;4.53;3.17;;;;;;;15.60;100.00;98707.50;5055226;28;20216;-70
2022/06/28 03:50:20;;;;;;;3.27;2.70;;;;;;;15.64;100.00;98706.31;5055364;28;20225;-70
2022/06/28 03:52:46;;;;;;;3.30;3.00;;;;;;;15.74;100.00;98705.44;5055314;28;20579;-71
2022/06/28 03:55:14;;;;;;;3.80;2.80;;;;;;;15.80;100.00;98714.75;5053724;28;20222;-70
2022/06/28 03:57:41;;;;;;;3.33;2.97;;;;;;;15.87;100.00;98706.13;5055254;28;20219;-69
2022/06/28 04:00:09;;;;;;;4.03;2.87;;;;;;;15.95;100.00;98708.19;5054799;28;20222;-69
2022/06/28 04:02:35;;;;;;;3.60;2.80;;;;;;;15.96;100.00;98715.19;5054122;28;20215;-70
2022/06/28 04:05:02;;;;;;;4.03;2.80;;;;;;;16.02;100.00;98716.38;5054730;28;20719;-70
2022/06/28 04:07:28;;;;;;;3.40;2.93;;;;;;;16.08;100.00;98719.53;5055000;28;20216;-69
2022/06/28 04:09:55;;;;;;;4.00;2.80;;;;;;;16.10;100.00;98718.44;5052010;28;20224;-70
2022/06/28 04:12:23;;;;;;;3.30;3.00;;;;;;;16.13;100.00;98718.16;5046915;28;20209;-70
2022/06/28 04:14:49;;;;;;;7.80;3.10;;;;;;;16.19;100.00;98723.00;5049154;28;20764;-69
2022/06/28 04:17:16;;;;;;;3.83;3.03;;;;;;;16.21;100.00;98716.56;5049428;28;20215;-70
2022/06/28 04:19:42;;;;;;;6.37;3.07;;;;;;;16.26;100.00;98725.03;5045114;28;20225;-70
2022/06/28 04:22:09;;;;;;;7.33;2.90;;;;;;;16.28;100.00;98715.06;5046422;28;20216;-70
2022/06/28 04:24:35;;;;;;;3.27;2.93;;;;;;;16.39;100.00;98717.75;5048933;28;20222;-70
2022/06/28 04:27:02;;;;;;;3.53;3.23;;;;;;;16.51;100.00;98715.88;5049194;28;20222;-71
2022/06/28 04:29:30;;;;;;;3.73;3.40;;;;;;;16.63;100.00;98718.34;5046912;28;20219;-71
2022/06/28 04:31:56;;;;;;;7.47;4.03;;;;;;;16.71;100.00;98721.22;5045595;28;20209;-71
2022/06/28 04:34:23;;;;;;;4.40;4.00;;;;;;;16.82;100.00;98734.50;5054409;28;20218;-71
2022/06/28 04:36:49;;;;;;;4.07;3.67;;;;;;;16.85;100.00;98733.41;5055146;28;20265;-70
2022/06/28 04:39:16;;;;;;;4.37;3.90;;;;;;;16.88;100.00;98731.31;5054145;28;20216;-72
2022/06/28 04:41:42;;;;;;;5.63;4.17;;;;;;;17.00;100.00;98732.94;5054358;28;20219;-70
2022/06/28 04:44:09;;;;;;;5.03;4.30;;;;;;;17.05;100.00;98733.41;5054609;28;20576;-71
2022/06/28 04:46:38;;;;;;;5.93;4.70;;;;;;;17.15;100.00;98730.78;5052756;28;20261;-71
2022/06/28 04:49:05;;;;;;;4.70;4.30;;;;;;;17.18;100.00;98730.53;5054217;28;20216;-72
2022/06/28 04:51:32;;;;;;;5.23;4.27;;;;;;;17.27;100.00;98741.25;5054314;28;20216;-71
2022/06/28 04:53:58;;;;;;;5.00;4.60;;;;;;;17.29;100.00;98743.78;5043491;28;20222;-71
2022/06/28 04:56:25;;;;;;;5.20;4.70;;;;;;;17.32;100.00;98739.00;5053891;28;20219;-71
2022/06/28 04:58:51;;;;;;;5.73;5.10;;;;;;;17.47;100.00;98743.06;5054110;28;20220;-71
2022/06/28 05:01:18;;;;;;;6.53;5.17;;;;;;;17.73;100.00;98749.63;5054037;28;20212;-71
2022/06/28 05:03:46;;;;;;;5.30;4.80;;;;;;;17.93;100.00;98740.69;5053635;28;20212;-71
2022/06/28 05:06:12;;;;;;;7.20;5.20;;;;;;;17.98;100.00;98741.13;5053835;28;20236;-72
2022/06/28 05:08:39;;;;;;;6.43;5.70;;;;;;;17.86;100.00;98739.53;5053845;28;20310;-72
2022/06/28 05:11:06;;;;;;;7.33;5.73;;;;;;;17.77;100.00;98737.69;5053911;28;20303;-72
2022/06/28 05:13:33;;;;;;;6.50;5.40;;;;;;;17.76;100.00;98738.69;5051805;28;20616;-72
2022/06/28 05:15:59;;;;;;;6.93;5.87;;;;;;;17.76;100.00;98737.81;5053778;28;20303;-72
2022/06/28 05:18:26;;;;;;;6.87;6.27;;;;;;;17.76;100.00;98733.34;5053736;28;20219;-72
2022/06/28 05:20:54;;;;;;;6.37;5.77;;;;;;;17.78;100.00;98723.34;5053358;28;20670;-72
2022/06/28 05:23:20;;;;;;;6.30;5.70;;;;;;;17.83;100.00;98718.44;5053660;28;20216;-72
2022/06/28 05:25:47;;;;;;;5.20;4.70;;;;;;;17.88;100.00;98723.38;5053262;28;20240;-72
2022/06/28 05:28:13;;;;;;;5.67;5.17;;;;;;;17.93;100.00;98729.97;5053357;28;20208;-72
2022/06/28 05:30:40;;;;;;;6.43;5.83;;;;;;;17.93;100.00;98729.16;5048162;28;20223;-73
2022/06/28 05:33:07;;;;;;;6.53;5.53;;;;;;;17.92;100.00;98739.00;5053333;28;20216;-73
2022/06/28 05:35:34;;;;;;;6.13;5.53;;;;;;;17.85;100.00;98732.50;5053483;28;20238;-71
2022/06/28 05:38:02;;;;;;;6.30;5.40;;;;;;;17.82;100.00;98723.91;5050993;28;20256;-72
2022/06/28 05:40:29;;;;;;;5.63;5.13;;;;;;;17.95;100.00;98713.81;5053366;28;20216;-72
2022/06/28 05:42:56;;;;;;;5.83;5.27;;;;;;;18.27;100.00;98719.75;5053498;28;20215;-72
2022/06/28 05:45:22;;;;;;;5.83;5.23;;;;;;;18.34;100.00;98724.47;5053108;28;20242;-72
2022/06/28 05:47:49;;;;;;;5.00;4.50;;;;;;;18.46;100.00;98728.69;5053395;28;20211;-72
2022/06/28 05:50:16;;;;;;;6.50;4.83;;;;;;;18.58;100.00;98726.69;5053239;28;20216;-72
2022/06/28 05:52:42;;;;;;;7.03;5.13;;;;;;;18.64;100.00;98723.47;5053179;28;20220;-72
2022/06/28 05:55:10;;;;;;;5.37;4.73;;;;;;;18.69;100.00;98723.88;5053168;28;20238;-71
2022/06/28 05:57:37;;;;;;;5.80;5.30;;;;;;;18.77;100.00;98722.19;5053152;28;20224;-72
2022/06/28 06:00:05;;;;;;;6.70;4.63;;;;;;;18.70;100.00;98731.78;5053140;28;20645;-72
2022/06/28 06:02:31;;;;;;;6.27;5.47;;;;;;;18.69;100.00;98731.91;5052857;28;20212;-72
2022/06/28 06:04:59;;;;;;;5.37;4.87;;;;;;;18.78;100.00;98723.88;5051396;28;20239;-73
2022/06/28 06:07:26;;;;;;;5.33;4.77;;;;;;;18.94;100.00;98732.19;5053008;28;20220;-72
2022/06/28 06:09:52;;;;;;;5.70;5.10;;;;;;;19.10;100.00;98721.72;5052960;28;20590;-72
2022/06/28 06:12:21;;;;;;;5.97;4.83;;;;;;;19.14;100.00;98727.66;5052978;28;20216;-72
2022/06/28 06:14:47;;;;;;;5.73;5.23;;;;;;;19.27;100.00;98729.03;5052970;28;20621;-71
2022/06/28 06:17:14;;;;;;;5.50;5.10;;;;;;;19.32;100.00;98731.28;5052902;28;20214;-72
2022/06/28 06:19:41;;;;;;;5.10;4.70;;;;;;;19.52;100.00;98730.22;5052980;28;20220;-71
2022/06/28 06:22:07;;;;;;;6.83;5.23;;;;;;;19.76;100.00;98722.50;5052984;28;20216;-71
2022/06/28 06:24:34;;;;;;;5.60;5.10;;;;;;;19.99;99.79;98719.25;5053751;28;20216;-71
2022/06/28 06:27:00;;;;;;;5.57;5.07;;;;;;;20.01;99.08;98722.66;5056574;28;20242;-72
2022/06/28 06:29:29;;;;;;;5.57;5.07;;;;;;;19.83;99.03;98712.84;5056179;28;20234;-71
2022/06/28 06:31:57;;;;;;;5.50;4.73;;;;;;;20.01;100.00;98711.91;5055822;28;20260;-72
2022/06/28 06:34:23;;;;;;;6.47;4.87;;;;;;;21.31;93.30;98704.84;5056469;28;20716;-71
2022/06/28 06:36:50;;;;;;;5.40;4.90;;;;;;;22.99;83.96;98706.19;5056747;28;20303;-72
2022/06/28 06:39:17;;;;;;;4.90;4.40;;;;;;;23.25;77.36;98704.19;5056594;28;20227;-71
2022/06/28 06:41:45;;;;;;;5.07;4.57;;;;;;;22.67;78.85;98714.31;5056762;28;20216;-71
2022/06/28 06:44:11;;;;;;;4.47;4.07;;;;;;;21.88;82.86;98726.53;5056535;28;20212;-71
2022/06/28 06:46:39;;;;;;;4.70;4.30;;;;;;;21.43;87.19;98736.72;5056302;28;20246;-71
2022/06/28 06:49:06;;;;;;;5.10;4.70;;;;;;;21.11;86.43;98730.28;5056232;28;20218;-72
2022/06/28 06:51:33;;;;;;;4.57;4.20;;;;;;;20.69;89.54;98723.84;5056226;28;20218;-71
2022/06/28 06:53:59;;;;;;;5.40;4.90;;;;;;;21.02;91.31;98710.56;5056599;28;20223;-71
2022/06/28 06:56:26;;;;;;;5.27;4.80;;;;;;;21.77;88.35;98713.38;5054788;28;20222;-72
2022/06/28 06:58:52;;;;;;;5.17;4.57;;;;;;;22.00;86.05;98698.31;5056400;28;20219;-72
2022/06/28 07:01:19;;;;;;;5.03;4.63;;;;;;;22.50;85.69;98691.03;5056338;28;20214;-72
2022/06/28 07:03:47;;;;;;;4.70;4.30;;;;;;;22.56;85.85;98684.97;5045448;28;20299;-72
2022/06/28 07:06:14;;;;;;;6.47;4.97;;;;;;;22.22;85.23;98676.16;5056322;28;20244;-73
2022/06/28 07:08:41;;;;;;;4.87;4.47;;;;;;;21.85;86.64;98662.28;5056202;28;20629;-72
2022/06/28 07:11:08;;;;;;;5.57;4.57;;;;;;;21.73;89.06;98652.81;5056214;28;20632;-72
2022/06/28 07:13:34;;;;;;;5.37;4.87;;;;;;;21.58;90.34;98649.00;5055458;28;20219;-73
2022/06/28 07:16:01;;;;;;;6.07;4.90;;;;;;;21.40;92.07;98631.31;5048716;28;20216;-73
2022/06/28 07:18:29;;;;;;;5.20;4.80;;;;;;;21.18;91.54;98627.34;5048467;28;20226;-71
2022/06/28 07:20:57;;;;;;;5.10;4.70;;;;;;;20.94;93.96;98621.81;5045610;28;20461;-71
2022/06/28 07:23:24;;;;;;;5.77;5.10;;;;;;;20.76;95.63;98629.06;5047205;28;20220;-73
2022/06/28 07:25:51;;;;;;;5.97;5.47;;;;;;;20.62;96.96;98643.06;5048835;28;20238;-71
2022/06/28 07:28:17;;;;;;;5.80;5.20;;;;;;;20.47;98.55;98655.34;5048462;28;20222;-72
2022/06/28 07:30:44;;;;;;;5.43;4.93;;;;;;;20.32;100.00;98645.31;5045084;28;20795;-73
2022/06/28 07:33:11;;;;;;;5.50;5.07;;;;;;;20.26;100.00;98657.50;5048211;28;20224;-73
2022/06/28 07:35:37;;;;;;;5.00;4.50;;;;;;;20.27;100.00;98664.56;5054006;28;20213;-73
2022/06/28 07:38:05;;;;;;;5.97;5.47;;;;;;;20.42;100.00;98660.31;5054291;28;20586;-73
2022/06/28 07:40:32;;;;;;;5.60;5.00;;;;;;;20.66;98.10;98659.72;5054091;28;20697;-73
2022/06/28 07:42:59;;;;;;;6.10;5.60;;;;;;;20.87;93.94;98666.41;5054023;28;20707;-73
2022/06/28 07:45:25;;;;;;;5.80;5.30;;;;;;;21.17;92.87;98665.97;5054011;28;20250;-72
2022/06/28 07:47:52;;;;;;;5.90;5.30;;;;;;;21.36;90.27;98660.38;5054104;28;20250;-72
2022/06/28 07:53:04;;;;;;;4.80;4.40;;;;;;;21.69;90.67;98666.78;5044158;28;20219;-72
2022/06/28 07:55:33;;;;;;;4.60;4.30;;;;;;;21.88;90.60;98670.00;5054096;28;20234;-72
2022/06/28 07:58:00;;;;;;;4.80;4.33;;;;;;;21.92;88.82;98674.06;5053637;28;20223;-72
2022/06/28 08:00:27;;;;;;;4.30;3.90;;;;;;;21.94;86.98;98669.34;5053757;28;20219;-72
2022/06/28 08:02:54;;;;;;;5.10;4.60;;;;;;;22.07;87.27;98675.09;5053715;28;20562;-72
2022/06/28 08:05:20;;;;;;;4.40;4.00;;;;;;;21.94;87.89;98668.53;5053846;28;20223;-72
2022/06/28 08:07:48;;;;;;;4.43;4.13;;;;;;;21.92;88.21;98662.44;5053491;28;20243;-72
2022/06/28 08:10:15;;;;;;;4.37;3.97;;;;;;;21.88;86.50;98651.19;5053667;28;20223;-72
2022/06/28 08:12:44;;;;;;;4.10;3.70;;;;;;;21.78;84.97;98649.63;5053774;28;20237;-72
2022/06/28 08:15:11;;;;;;;4.23;3.93;;;;;;;21.80;88.72;98653.84;5052021;28;20222;-72
2022/06/28 08:17:38;;;;;;;4.73;4.33;;;;;;;21.84;87.37;98665.97;5053292;28;20220;-72
2022/06/28 08:20:06;;;;;;;4.50;4.10;;;;;;;21.73;87.60;98655.50;5053214;28;20747;-72
2022/06/28 08:22:33;;;;;;;4.77;4.37;;;;;;;21.78;86.81;98645.09;5053411;28;20211;-73
2022/06/28 08:24:59;;;;;;;4.87;4.37;;;;;;;21.77;85.42;98635.31;5053201;28;20238;-72
2022/06/28 08:27:26;;;;;;;5.70;4.50;;;;;;;21.92;84.86;98620.25;5053393;28;20257;-72
2022/06/28 08:29:54;;;;;;;4.30;3.90;;;;;;;22.14;82.74;98624.97;5053399;28;20370;-73
2022/06/28 08:32:23;;;;;;;4.47;4.07;;;;;;;22.56;85.44;98620.31;5053393;28;20224;-72
2022/06/28 08:34:50;;;;;;;4.23;3.63;;;;;;;22.88;83.07;98620.31;5053115;28;20681;-73
2022/06/28 08:37:18;;;;;;;3.20;3.00;;;;;;;23.26;79.92;98624.97;5053182;28;20330;-74
2022/06/28 08:39:45;;;;;;;3.33;2.97;;;;;;;23.56;80.93;98621.47;5052913;28;20223;-74
2022/06/28 08:42:13;;;;;;;4.90;3.30;;;;;;;23.80;78.20;98632.16;5051259;28;20246;-74
2022/06/28 08:44:40;;;;;;;3.57;2.73;;;;;;;23.95;77.20;98622.31;5053075;28;20219;-74
2022/06/28 08:47:13;;;;;;;3.60;3.20;;;;;;;24.27;75.82;98627.47;5052338;28;20327;-74
2022/06/28 08:49:51;;;;;;;3.40;3.10;;;;;;;24.52;77.44;98620.91;5053125;28;20211;-75
2022/06/28 08:52:18;;;;;;;3.20;2.37;;;;;;;24.44;69.21;98628.22;5052826;28;20223;-74
2022/06/28 08:54:47;;;;;;;2.60;2.03;;;;;;;24.47;69.70;98617.91;5052844;28;20608;-74
2022/06/28 08:57:14;;;;;;;3.10;1.90;;;;;;;24.23;66.79;98609.13;5052592;28;20216;-74
2022/06/28 08:59:40;;;;;;;2.27;2.07;;;;;;;23.99;68.49;98612.84;5052840;28;20216;-74
2022/06/28 09:02:09;;;;;;;1.90;1.80;;;;;;;23.63;70.72;98611.66;5052804;28;20653;-73
2022/06/28 09:04:35;;;;;;;2.43;2.07;;;;;;;23.30;70.68;98614.66;5052442;28;20211;-74
2022/06/28 09:07:02;;;;;;;2.80;2.00;;;;;;;23.09;72.88;98607.09;5052657;28;20282;-74
2022/06/28 09:09:29;;;;;;;2.20;2.00;;;;;;;23.07;73.90;98602.91;5051042;28;20207;-74
2022/06/28 09:11:56;;;;;;;3.17;2.07;;;;;;;22.97;75.15;98595.00;5052651;28;20208;-73
2022/06/28 09:14:25;;;;;;;2.20;2.00;;;;;;;22.74;74.76;98607.50;5052554;28;20208;-74
2022/06/28 09:16:52;;;;;;;2.60;2.40;;;;;;;22.72;81.18;98604.16;5047503;28;20216;-74
2022/06/28 09:19:33;;;;;;;2.23;2.10;;;;;;;22.94;78.27;98603.44;5052420;28;20222;-74
2022/06/28 09:22:00;;;;;;;2.40;2.20;;;;;;;23.09;76.85;98592.75;5052435;28;20219;-74
2022/06/28 09:24:26;;;;;;;2.97;2.10;;;;;;;23.10;78.26;98592.59;5051986;28;20211;-74
2022/06/28 09:26:55;;;;;;;2.27;2.07;;;;;;;23.14;78.20;98585.84;5051963;28;20243;-74
2022/06/28 09:29:22;;;;;;;2.00;1.90;;;;;;;23.23;77.58;98594.78;5052270;28;20227;-74
2022/06/28 09:31:48;;;;;;;1.80;1.70;;;;;;;23.34;77.62;98599.81;5051947;28;20212;-74
2022/06/28 09:34:15;;;;;;;1.80;1.70;;;;;;;23.42;76.80;98603.28;5050654;28;20212;-74
2022/06/28 09:36:55;;;;;;;1.97;1.70;;;;;;;23.53;72.63;98605.63;5061228;28;20208;-74
2022/06/28 09:39:22;;;;;;;1.83;1.63;;;;;;;23.56;73.96;98605.28;5052089;28;20228;-74
2022/06/28 09:41:51;;;;;;;2.27;1.67;;;;;;;23.61;75.01;98602.91;5052016;28;20674;-74
2022/06/28 09:44:18;;;;;;;1.63;1.53;;;;;;;23.72;72.21;98609.75;5052438;28;20216;-74
2022/06/28 09:46:47;;;;;;;1.70;1.60;;;;;;;23.72;74.79;98610.59;5051700;28;20241;-75
2022/06/28 09:49:14;;;;;;;2.00;1.90;;;;;;;23.79;69.00;98616.97;5052076;28;20230;-74
2022/06/28 09:51:41;;;;;;;2.17;1.70;;;;;;;23.71;70.92;98611.59;5051866;28;20222;-74
2022/06/28 09:54:10;;;;;;;1.87;1.77;;;;;;;23.87;73.91;98598.06;5051631;28;20212;-74
2022/06/28 09:56:40;;;;;;;2.33;1.97;;;;;;;24.04;73.97;98598.78;5051841;28;20212;-73
2022/06/28 09:59:07;;;;;;;2.90;1.80;;;;;;;24.13;72.16;98592.34;5050963;28;20243;-74
2022/06/28 10:01:35;;;;;;;1.90;1.80;;;;;;;24.13;69.21;98587.75;5050025;28;20302;-74
2022/06/28 10:04:02;;;;;;;1.77;1.67;;;;;;;24.06;72.13;98592.19;5046259;28;20365;-73
2022/06/28 10:06:29;;;;;;;3.67;1.70;;;;;;;24.06;67.61;98592.19;5051724;28;20633;-73
2022/06/28 10:08:56;;;;;;;1.80;1.70;;;;;;;23.97;73.87;98593.28;5051694;28;20220;-73
2022/06/28 10:11:24;;;;;;;1.60;1.50;;;;;;;24.14;73.99;98594.00;5051854;28;20211;-73
2022/06/28 10:16:47;;;;;;;3.20;1.60;;;;;;;24.02;70.86;98577.34;5041614;28;20697;-73
2022/06/28 10:19:17;;;;;;;1.83;1.70;;;;;;;24.08;74.01;98573.94;5051621;28;20212;-74
2022/06/28 10:21:46;;;;;;;2.13;1.70;;;;;;;24.18;70.53;98562.88;5046283;28;20212;-74
2022/06/28 10:24:13;;;;;;;2.07;1.80;;;;;;;24.26;69.18;98555.56;5051186;28;20688;-74
2022/06/28 10:26:45;;;;;;;1.50;1.40;;;;;;;24.56;70.28;98551.91;5051430;28;20267;-74
2022/06/28 10:29:12;;;;;;;1.80;1.60;;;;;;;24.63;67.17;98552.91;5050181;28;20306;-73
2022/06/28 10:31:41;;;;;;;2.47;1.77;;;;;;;24.48;68.34;98559.25;5051487;28;20626;-75
2022/06/28 10:34:10;;;;;;;1.57;1.47;;;;;;;24.57;68.48;98561.75;5051434;28;20210;-75
2022/06/28 10:36:48;;;;;;;1.53;1.43;;;;;;;24.47;63.28;98553.03;5051150;28;20230;-75
2022/06/28 10:39:20;;;;;;;1.70;1.50;;;;;;;24.32;67.78;98552.13;5051465;28;20216;-75
2022/06/28 10:41:50;;;;;;;2.07;1.63;;;;;;;24.42;67.16;98550.03;5051528;28;20215;-75
2022/06/28 10:44:20;;;;;;;1.93;1.70;;;;;;;24.60;67.06;98539.75;5051459;28;20216;-76
2022/06/28 10:46:51;;;;;;;1.60;1.50;;;;;;;24.59;64.14;98546.19;5051296;28;20330;-75
2022/06/28 10:49:18;;;;;;;1.50;1.40;;;;;;;24.58;62.24;98538.25;5045793;28;20216;-73
2022/06/28 10:52:12;;;;;;;1.70;1.40;;;;;;;24.64;62.12;98532.94;5058449;28;20693;-77
2022/06/28 10:54:40;;;;;;;1.57;1.33;;;;;;;24.57;62.26;98515.78;5049285;28;20734;-75
2022/06/28 10:57:22;;;;;;;2.67;1.80;;;;;;;24.42;66.66;98528.41;5050777;28;20705;-75
2022/06/28 10:59:51;;;;;;;1.70;1.60;;;;;;;24.40;69.73;98525.06;5040925;28;20212;-77
2022/06/28 11:02:18;;;;;;;1.70;1.60;;;;;;;24.46;67.32;98518.06;5051208;28;20220;-77
2022/06/28 11:04:45;;;;;;;3.40;1.57;;;;;;;24.40;64.90;98495.34;5051464;28;20487;-76
2022/06/28 11:07:23;;;;;;;1.67;1.57;;;;;;;24.33;66.17;98497.06;5050795;28;20232;-77
2022/06/28 11:10:04;;;;;;;1.40;1.30;;;;;;;24.44;67.21;98493.09;5050929;28;20681;-77
2022/06/28 11:12:42;;;;;;;1.47;1.37;;;;;;;24.43;62.62;98480.59;5055192;28;20231;-77
2022/06/28 11:15:10;;;;;;;1.87;1.40;;;;;;;24.43;61.89;98480.59;5054757;28;20212;-76
2022/06/28 11:17:40;;;;;;;1.07;1.07;;;;;;;24.37;65.83;98476.78;5054373;28;20212;-77
2022/06/28 11:20:09;;;;;;;1.40;1.30;;;;;;;24.60;65.57;98485.69;5054443;28;20235;-77
2022/06/28 11:22:40;;;;;;;1.20;1.10;;;;;;;24.84;62.11;98480.03;5053655;28;20299;-76
2022/06/28 11:25:09;;;;;;;2.80;1.30;;;;;;;24.88;60.04;98458.84;5054373;28;20238;-76
2022/06/28 11:27:35;;;;;;;2.17;1.30;;;;;;;24.83;65.76;98458.56;5054419;28;20240;-77
2022/06/28 11:30:07;;;;;;;3.67;1.40;;;;;;;25.08;64.31;98455.38;5054398;28;20220;-77
2022/06/28 11:32:35;;;;;;;3.30;1.30;;;;;;;25.24;63.07;98466.00;5049205;28;20557;-77
2022/06/28 11:35:05;;;;;;;1.37;1.30;;;;;;;25.11;61.03;98463.09;5054099;28;20602;-77
2022/06/28 11:37:33;;;;;;;1.67;1.23;;;;;;;24.99;61.11;98470.03;5054471;28;20254;-78
2022/06/28 11:40:01;;;;;;;3.23;1.30;;;;;;;24.98;61.88;98454.81;5054063;28;20215;-77
2022/06/28 11:42:28;;;;;;;1.63;1.30;;;;;;;25.11;61.04;98455.00;5053959;28;20746;-77